Time;durP1;ratioP1;P1;durP2;ratioP2;P2;SDS_P1;SDS_P2;PMS_P1;PMS_P2;Temp;Humidity;BMP_temperature;BMP_pressure;BME280_temperature;BME280_humidity;BME280_pressure;Samples;Min_cycle;Max_cycle;Signal;HPM_P1;HPM_P2
2021/01/19 00:00:47;;;;;;;17.95;3.75;;;;;;;7.91;64.10;101622.16;5115677;27;20047;-77
2021/01/19 00:03:14;;;;;;;17.85;4.50;;;;;;;7.94;64.54;101621.63;5104989;28;20055;-78
2021/01/19 00:05:42;;;;;;;16.75;4.50;;;;;;;7.79;65.16;101615.31;5106795;28;20063;-77
2021/01/19 00:08:09;;;;;;;20.17;4.20;;;;;;;7.98;64.43;101610.94;5112876;28;20371;-78
2021/01/19 00:10:36;;;;;;;20.85;5.07;;;;;;;7.80;65.03;101614.19;5107840;28;20044;-76
2021/01/19 00:13:03;;;;;;;18.08;4.55;;;;;;;7.99;64.63;101610.66;5092765;28;20062;-76
2021/01/19 00:15:34;;;;;;;22.13;4.32;;;;;;;7.96;64.31;101602.16;5075892;28;20078;-75
2021/01/19 00:18:01;;;;;;;22.70;5.07;;;;;;;7.93;64.01;101591.72;5096379;28;20040;-77
2021/01/19 00:20:28;;;;;;;15.27;4.38;;;;;;;7.97;63.88;101598.28;5112356;28;20402;-75
2021/01/19 00:22:55;;;;;;;18.52;5.30;;;;;;;7.96;64.65;101594.75;5096586;28;20054;-78
2021/01/19 00:25:26;;;;;;;20.27;4.45;;;;;;;7.81;64.37;101588.44;5114006;28;20047;-77
2021/01/19 00:27:53;;;;;;;21.52;6.57;;;;;;;7.88;64.63;101578.00;5108717;28;20074;-76
2021/01/19 00:30:20;;;;;;;25.63;10.20;;;;;;;7.94;64.41;101568.69;5114007;28;20398;-76
2021/01/19 00:32:47;;;;;;;28.08;10.40;;;;;;;7.82;64.44;101571.72;5114221;28;20047;-79
2021/01/19 00:35:14;;;;;;;21.45;5.63;;;;;;;7.84;64.30;101576.91;5110041;28;20406;-77
2021/01/19 00:37:41;;;;;;;24.00;5.57;;;;;;;7.93;64.30;101564.28;5113939;28;20038;-76
2021/01/19 00:40:08;;;;;;;12.65;3.70;;;;;;;8.05;63.96;101562.09;5113556;28;20056;-78
2021/01/19 00:42:35;;;;;;;13.75;3.60;;;;;;;8.00;63.79;101554.66;5095899;28;20070;-77
2021/01/19 00:45:02;;;;;;;17.27;3.90;;;;;;;7.95;63.89;101551.94;5078947;28;20043;-77
2021/01/19 00:47:29;;;;;;;18.00;4.60;;;;;;;7.86;64.06;101536.31;5115330;28;20070;-78
2021/01/19 00:49:56;;;;;;;15.02;3.78;;;;;;;7.93;63.90;101532.19;5098932;28;20063;-76
2021/01/19 00:52:24;;;;;;;21.05;4.07;;;;;;;7.91;63.92;101530.84;5094857;28;20521;-77
2021/01/19 00:54:56;;;;;;;16.63;3.70;;;;;;;7.79;64.40;101524.81;5079618;28;20410;-76
2021/01/19 00:57:24;;;;;;;18.52;3.63;;;;;;;7.79;64.06;101511.91;5095265;28;20050;-78
2021/01/19 00:59:52;;;;;;;11.15;3.28;;;;;;;7.70;64.52;101520.97;5095248;28;20044;-77
2021/01/19 01:02:20;;;;;;;15.40;3.53;;;;;;;7.47;64.72;101522.34;5114118;28;20048;-76
2021/01/19 01:04:47;;;;;;;17.85;3.88;;;;;;;7.68;64.39;101513.03;5113782;28;20055;-77
2021/01/19 01:07:14;;;;;;;19.23;3.53;;;;;;;7.86;63.89;101515.19;5112841;28;20063;-76
2021/01/19 01:09:41;;;;;;;20.15;4.35;;;;;;;7.79;63.93;101508.34;5093910;28;20048;-75
2021/01/19 01:12:09;;;;;;;17.40;4.05;;;;;;;7.64;64.17;101508.34;5094192;28;20058;-77
2021/01/19 01:14:36;;;;;;;11.90;3.88;;;;;;;7.71;64.11;101512.47;5112522;28;20059;-77
2021/01/19 01:17:05;;;;;;;13.27;3.17;;;;;;;7.82;63.85;101503.16;5113027;28;20048;-77
2021/01/19 01:19:32;;;;;;;12.75;3.70;;;;;;;7.73;63.74;101513.00;5092624;28;20055;-76
2021/01/19 01:22:00;;;;;;;17.67;3.10;;;;;;;7.73;63.71;101503.97;5077877;28;20046;-76
2021/01/19 01:24:26;;;;;;;15.63;3.88;;;;;;;7.68;63.78;101506.72;5113286;28;20055;-76
2021/01/19 01:26:54;;;;;;;18.98;3.58;;;;;;;7.66;63.67;101500.66;5094032;28;20051;-75
2021/01/19 01:29:21;;;;;;;17.20;3.10;;;;;;;7.89;63.54;101497.38;5112020;28;20055;-77
2021/01/19 01:31:48;;;;;;;10.65;2.70;;;;;;;7.74;63.69;101495.44;5094134;28;20039;-77
2021/01/19 01:34:15;;;;;;;13.50;3.28;;;;;;;7.82;63.60;101497.66;5116458;28;20050;-76
2021/01/19 01:36:42;;;;;;;10.98;3.17;;;;;;;7.84;63.55;101495.47;5118168;28;20391;-77
2021/01/19 01:39:09;;;;;;;13.38;3.17;;;;;;;7.86;63.22;101498.72;5095858;28;20051;-77
2021/01/19 01:41:37;;;;;;;12.10;2.85;;;;;;;7.82;63.40;101492.16;5113188;28;20051;-77
2021/01/19 01:44:04;;;;;;;13.93;3.20;;;;;;;7.82;63.09;101486.69;5113744;28;20050;-76
2021/01/19 01:46:34;;;;;;;10.32;3.70;;;;;;;7.83;63.07;101484.75;5114191;28;20052;-76
2021/01/19 01:49:01;;;;;;;;;;;;;;;7.89;62.80;101475.41;5096025;28;20047;-76
2021/01/19 01:51:29;;;;;;;14.57;3.08;;;;;;;7.86;63.11;101476.78;5112885;28;19924;-77
2021/01/19 01:53:57;;;;;;;10.85;3.05;;;;;;;7.86;62.74;101482.28;5094145;28;20505;-76
2021/01/19 01:56:25;;;;;;;18.08;3.40;;;;;;;7.89;62.97;101475.41;5113374;28;20050;-76
2021/01/19 01:58:52;;;;;;;12.63;2.78;;;;;;;7.87;62.64;101472.97;5097926;28;20051;-76
2021/01/19 02:01:20;;;;;;;16.38;3.17;;;;;;;7.72;63.17;101467.47;5117580;28;20047;-76
2021/01/19 02:03:46;;;;;;;11.40;2.78;;;;;;;7.71;63.35;101463.09;5117519;28;20474;-75
2021/01/19 02:06:16;;;;;;;13.07;2.85;;;;;;;7.77;63.11;101458.44;5117388;28;20051;-75
2021/01/19 02:08:54;;;;;;;13.43;2.97;;;;;;;7.64;63.65;101462.56;5097379;28;20125;-77
2021/01/19 02:11:43;;;;;;;12.57;2.50;;;;;;;7.63;63.38;101466.41;5081655;28;20047;-77
2021/01/19 02:14:13;;;;;;;19.48;3.20;;;;;;;7.59;63.44;101465.31;5097722;28;20051;-76
2021/01/19 02:17:02;;;;;;;9.23;2.75;;;;;;;7.59;63.87;101465.31;5082546;28;20048;-76
2021/01/19 02:19:29;;;;;;;11.10;3.00;;;;;;;7.66;63.85;101456.81;5117029;28;20058;-76
2021/01/19 02:22:08;;;;;;;18.85;3.63;;;;;;;7.60;64.06;101453.25;5118429;28;20056;-75
2021/01/19 02:24:40;;;;;;;11.10;2.95;;;;;;;7.72;64.35;101451.03;5122026;28;20051;-75
2021/01/19 02:27:32;;;;;;;10.90;2.95;;;;;;;7.72;63.31;101440.06;5083403;28;20059;-76
2021/01/19 02:30:05;;;;;;;9.77;2.80;;;;;;;7.69;63.04;101439.78;5115728;28;20046;-77
2021/01/19 02:32:37;;;;;;;13.52;2.75;;;;;;;7.61;63.60;101435.72;5116322;28;20052;-76
2021/01/19 02:35:23;;;;;;;14.30;2.97;;;;;;;7.72;63.31;101425.53;5115242;28;20372;-77
2021/01/19 02:38:12;;;;;;;14.55;3.03;;;;;;;7.80;63.40;101414.84;5064420;28;20040;-76
2021/01/19 02:40:40;;;;;;;11.75;3.00;;;;;;;7.69;63.30;101426.91;5078800;28;20044;-77
2021/01/19 02:43:09;;;;;;;15.02;2.97;;;;;;;7.60;63.61;101417.59;5116542;28;20066;-76
2021/01/19 02:45:45;;;;;;;16.15;3.33;;;;;;;7.51;63.46;101410.22;5098539;28;20406;-77
2021/01/19 02:48:11;;;;;;;15.65;3.25;;;;;;;7.63;63.77;101397.88;5098054;28;20051;-77
2021/01/19 02:50:38;;;;;;;13.52;3.65;;;;;;;7.55;63.71;101412.13;5116019;28;20047;-77
2021/01/19 02:53:06;;;;;;;11.57;3.00;;;;;;;7.60;63.41;101394.88;5116283;28;20048;-77
2021/01/19 02:55:33;;;;;;;14.70;3.40;;;;;;;7.60;63.78;101395.66;5080961;28;20048;-78
2021/01/19 02:58:05;;;;;;;16.52;3.15;;;;;;;7.68;63.41;101375.94;5097258;28;20406;-78
2021/01/19 03:00:47;;;;;;;12.00;2.88;;;;;;;7.60;63.11;101370.19;5097340;28;20055;-75
2021/01/19 03:03:15;;;;;;;12.45;2.90;;;;;;;7.84;62.64;101377.53;5081151;28;20048;-78
2021/01/19 03:05:43;;;;;;;20.38;3.88;;;;;;;7.73;62.97;101377.81;5097854;28;20398;-78
2021/01/19 03:08:13;;;;;;;16.17;2.83;;;;;;;7.64;62.64;101379.47;5081144;28;20051;-78
2021/01/19 03:10:43;;;;;;;11.57;2.50;;;;;;;7.75;62.83;101381.94;5096234;28;20048;-76
2021/01/19 03:13:16;;;;;;;;;;;;;;;7.81;62.60;101377.28;5100420;28;20048;-77
2021/01/19 03:15:43;;;;;;;13.30;2.83;;;;;;;7.86;61.75;101374.50;5098532;28;19926;-77
2021/01/19 03:18:10;;;;;;;15.82;3.30;;;;;;;7.58;63.00;101369.66;5115695;28;20059;-78
2021/01/19 03:20:37;;;;;;;13.77;3.25;;;;;;;7.51;63.21;101363.63;5114903;28;20388;-76
2021/01/19 03:23:04;;;;;;;13.18;2.58;;;;;;;7.32;63.87;101352.41;5115331;28;20051;-74
2021/01/19 03:25:31;;;;;;;16.65;2.78;;;;;;;7.52;63.13;101349.66;5115275;28;20062;-78
2021/01/19 03:27:58;;;;;;;22.77;3.20;;;;;;;7.57;63.34;101348.78;5115083;28;20056;-78
2021/01/19 03:30:25;;;;;;;15.68;2.90;;;;;;;7.53;63.13;101354.00;5096135;28;20045;-78
2021/01/19 03:32:55;;;;;;;14.55;3.17;;;;;;;7.51;63.01;101352.66;5097318;28;20402;-76
2021/01/19 03:35:22;;;;;;;19.50;3.75;;;;;;;7.49;63.17;101354.84;5097487;28;20517;-77
2021/01/19 03:37:48;;;;;;;17.92;3.65;;;;;;;7.54;62.71;101344.72;5115594;28;20051;-77
2021/01/19 03:40:15;;;;;;;14.90;3.10;;;;;;;7.58;63.09;101339.50;5115052;28;20039;-77
2021/01/19 03:42:42;;;;;;;17.40;3.30;;;;;;;7.53;63.04;101331.28;5115173;28;20398;-75
2021/01/19 03:45:10;;;;;;;16.48;3.28;;;;;;;7.48;63.16;101323.06;5115286;28;20044;-78
2021/01/19 03:47:36;;;;;;;13.07;2.78;;;;;;;7.44;63.25;101313.75;5114208;28;20044;-75
2021/01/19 03:50:04;;;;;;;14.05;3.53;;;;;;;7.49;63.54;101305.53;5096739;28;20044;-78
2021/01/19 03:52:31;;;;;;;13.27;2.80;;;;;;;7.52;63.21;101307.69;5114938;28;20474;-76
2021/01/19 03:54:58;;;;;;;14.20;2.58;;;;;;;7.57;63.21;101299.44;5096125;28;20047;-75
2021/01/19 03:57:25;;;;;;;15.63;2.60;;;;;;;7.71;63.16;101290.38;5114345;28;20055;-76
2021/01/19 03:59:54;;;;;;;9.82;2.60;;;;;;;7.49;63.16;101298.13;5096642;28;20044;-78
2021/01/19 04:02:21;;;;;;;16.42;2.75;;;;;;;7.71;62.82;101293.09;5115647;28;20050;-77
2021/01/19 04:04:49;;;;;;;14.55;3.00;;;;;;;7.81;62.35;101295.78;5097636;28;20062;-77
2021/01/19 04:07:15;;;;;;;12.93;2.67;;;;;;;7.71;62.91;101304.06;5115019;28;20055;-76
2021/01/19 04:09:42;;;;;;;14.05;2.55;;;;;;;7.81;62.78;101304.03;5114360;28;20044;-77
2021/01/19 04:12:10;;;;;;;12.70;2.78;;;;;;;7.84;62.64;101289.78;5114111;28;20079;-78
2021/01/19 04:14:37;;;;;;;14.63;3.22;;;;;;;7.74;62.69;101287.06;5113419;28;20524;-77
2021/01/19 04:17:04;;;;;;;23.48;3.00;;;;;;;7.93;62.99;101277.09;5096536;28;20050;-76
2021/01/19 04:19:32;;;;;;;19.30;3.83;;;;;;;7.68;62.92;101284.63;5114297;28;20047;-77
2021/01/19 04:21:59;;;;;;;13.98;2.97;;;;;;;7.75;63.11;101276.91;5080032;28;20503;-78
2021/01/19 04:24:28;;;;;;;13.25;3.13;;;;;;;7.89;62.66;101280.69;5098513;28;20052;-77
2021/01/19 04:26:55;;;;;;;20.02;3.35;;;;;;;7.89;62.85;101276.03;5093228;28;20048;-77
2021/01/19 04:29:22;;;;;;;17.50;3.75;;;;;;;7.91;63.05;101268.31;5092769;28;20403;-77
2021/01/19 04:31:50;;;;;;;14.73;2.67;;;;;;;7.79;62.82;101254.13;5095096;28;20044;-78
2021/01/19 04:34:17;;;;;;;12.30;2.65;;;;;;;7.60;63.50;101247.63;5095811;28;20051;-78
2021/01/19 04:36:44;;;;;;;18.88;3.78;;;;;;;7.76;63.83;101246.47;5079284;28;20406;-77
2021/01/19 04:39:11;;;;;;;16.65;3.28;;;;;;;7.78;63.40;101241.53;5094886;28;20055;-78
2021/01/19 04:41:40;;;;;;;13.25;2.47;;;;;;;7.89;63.48;101236.81;5074668;28;20059;-77
2021/01/19 04:44:07;;;;;;;9.45;2.38;;;;;;;7.90;63.73;101249.41;5058427;28;20047;-78
2021/01/19 04:46:34;;;;;;;20.50;2.97;;;;;;;7.79;63.36;101243.16;5093767;28;20047;-77
2021/01/19 04:49:04;;;;;;;17.73;3.47;;;;;;;7.90;63.65;101235.69;5097069;28;20063;-78
2021/01/19 04:51:33;;;;;;;15.75;3.08;;;;;;;7.67;63.85;101233.63;5099695;28;20398;-77
2021/01/19 04:54:03;;;;;;;15.90;2.92;;;;;;;7.79;63.83;101223.94;5094210;28;20059;-77
2021/01/19 04:56:31;;;;;;;17.55;3.53;;;;;;;7.70;64.21;101231.16;5076162;28;20040;-76
2021/01/19 04:58:58;;;;;;;18.67;3.30;;;;;;;7.54;64.21;101220.53;5075445;28;20516;-76
2021/01/19 05:01:34;;;;;;;16.35;3.25;;;;;;;7.79;64.73;101213.00;5090558;28;20043;-77
2021/01/19 05:04:16;;;;;;;19.40;3.35;;;;;;;8.08;64.03;101229.56;5095693;28;20055;-78
2021/01/19 05:06:43;;;;;;;17.17;3.65;;;;;;;7.89;63.90;101223.09;5113783;28;20398;-78
2021/01/19 05:09:10;;;;;;;15.55;2.90;;;;;;;7.84;64.16;101234.91;5078150;28;20095;-77
2021/01/19 05:11:52;;;;;;;18.52;2.92;;;;;;;7.75;64.26;101225.66;5095960;28;20394;-77
2021/01/19 05:14:21;;;;;;;13.13;2.42;;;;;;;7.66;64.65;101223.75;5114299;28;20513;-76
2021/01/19 05:16:49;;;;;;;18.13;3.97;;;;;;;7.95;64.65;101213.72;5095720;28;20487;-79
2021/01/19 05:19:21;;;;;;;19.30;3.50;;;;;;;7.65;65.12;101211.16;5096207;28;20048;-77
2021/01/19 05:21:49;;;;;;;14.73;3.30;;;;;;;7.54;65.33;101215.88;5113504;28;20105;-77
2021/01/19 05:24:16;;;;;;;17.55;2.83;;;;;;;7.76;65.64;101201.75;5114001;28;20043;-77
2021/01/19 05:26:43;;;;;;;13.93;2.95;;;;;;;7.72;65.54;101195.22;5078650;28;20040;-77
2021/01/19 05:29:11;;;;;;;19.30;3.60;;;;;;;7.67;65.07;101200.75;5091569;28;20522;-76
2021/01/19 05:31:38;;;;;;;15.23;2.90;;;;;;;7.82;65.55;101196.00;5093733;28;20040;-77
2021/01/19 05:34:13;;;;;;;18.15;3.95;;;;;;;8.00;64.62;101184.34;5093989;28;20052;-77
2021/01/19 05:36:41;;;;;;;15.57;2.65;;;;;;;7.81;64.87;101183.38;5095736;28;20399;-77
2021/01/19 05:39:18;;;;;;;17.48;3.65;;;;;;;7.65;65.63;101179.06;5093336;28;20048;-77
2021/01/19 05:41:52;;;;;;;16.40;3.10;;;;;;;7.62;66.22;101181.56;5095427;28;20048;-77
2021/01/19 05:44:31;;;;;;;16.73;3.55;;;;;;;7.63;66.23;101181.28;5081034;28;20040;-77
2021/01/19 05:47:04;;;;;;;18.92;3.35;;;;;;;7.51;66.46;101177.25;5099103;28;20048;-75
2021/01/19 05:49:42;;;;;;;11.32;2.90;;;;;;;7.61;66.32;101169.78;5103840;28;20538;-78
2021/01/19 05:52:11;;;;;;;20.95;3.03;;;;;;;7.63;66.51;101164.03;5094643;28;20051;-79
2021/01/19 05:54:49;;;;;;;17.48;3.45;;;;;;;7.67;66.82;101165.09;5074738;28;20055;-78
2021/01/19 05:57:24;;;;;;;15.77;3.35;;;;;;;7.72;65.67;101156.84;5093797;28;20048;-78
2021/01/19 05:59:58;;;;;;;15.00;3.38;;;;;;;7.50;66.59;101159.13;5094340;28;20060;-78
2021/01/19 06:02:43;;;;;;;15.55;3.60;;;;;;;7.45;67.20;101157.25;5090879;28;20048;-80
2021/01/19 06:05:17;;;;;;;17.20;3.00;;;;;;;7.59;66.81;101157.44;5092908;28;20058;-78
2021/01/19 06:07:48;;;;;;;19.02;3.85;;;;;;;7.31;67.27;101147.19;5091064;28;20040;-78
2021/01/19 06:10:18;;;;;;;15.20;3.25;;;;;;;7.36;67.29;101142.50;5075101;28;20048;-77
2021/01/19 06:12:45;;;;;;;15.37;3.80;;;;;;;7.49;67.44;101152.03;5090698;28;20051;-79
2021/01/19 06:15:12;;;;;;;19.17;3.53;;;;;;;7.37;67.72;101143.34;5095078;28;20438;-78
2021/01/19 06:17:38;;;;;;;15.80;3.08;;;;;;;7.53;68.53;101137.47;5091806;28;20234;-77
2021/01/19 06:20:06;;;;;;;21.17;3.25;;;;;;;7.44;69.25;101141.09;5092423;28;20056;-78
2021/01/19 06:22:34;;;;;;;15.60;4.18;;;;;;;7.41;69.32;101131.50;5093964;28;20055;-77
2021/01/19 06:25:04;;;;;;;16.90;3.13;;;;;;;7.50;69.03;101127.06;5094094;28;20051;-77
2021/01/19 06:27:32;;;;;;;12.50;3.10;;;;;;;7.65;68.51;101123.44;5098881;28;20056;-76
2021/01/19 06:29:59;;;;;;;15.77;3.30;;;;;;;7.48;68.49;101115.56;5116602;28;20067;-79
2021/01/19 06:32:39;;;;;;;17.38;3.45;;;;;;;7.56;69.04;101108.69;5097436;28;20055;-78
2021/01/19 06:35:17;;;;;;;17.67;3.20;;;;;;;7.57;68.55;101118.53;5082095;28;20050;-77
2021/01/19 06:37:46;;;;;;;12.73;3.10;;;;;;;7.81;68.39;101111.28;5094051;28;20055;-78
2021/01/19 06:40:14;;;;;;;16.30;3.40;;;;;;;7.61;68.84;101120.44;5113339;28;20058;-78
2021/01/19 06:42:42;;;;;;;13.18;3.10;;;;;;;7.58;69.14;101106.50;5113066;28;20383;-77
2021/01/19 06:45:11;;;;;;;14.25;3.17;;;;;;;7.57;70.48;101110.31;5114682;28;20433;-78
2021/01/19 06:47:52;;;;;;;16.70;3.15;;;;;;;7.02;73.07;101108.69;5097854;28;20051;-79
2021/01/19 06:50:20;;;;;;;15.77;3.17;;;;;;;7.18;73.56;101106.72;5116154;28;20490;-78
2021/01/19 06:53:16;;;;;;;15.75;3.42;;;;;;;7.24;73.48;101098.19;5116163;28;20074;-78
2021/01/19 06:55:58;;;;;;;15.45;3.83;;;;;;;7.21;74.02;101101.50;5115761;28;20375;-78
2021/01/19 06:58:44;;;;;;;15.93;3.25;;;;;;;7.17;74.39;101110.53;5096885;28;20043;-77
2021/01/19 07:01:13;;;;;;;12.55;3.28;;;;;;;6.95;75.63;101110.09;5080192;28;20048;-80
2021/01/19 07:03:41;;;;;;;14.27;3.03;;;;;;;7.13;75.62;101110.28;5115143;28;20533;-75
2021/01/19 07:06:10;;;;;;;15.75;3.13;;;;;;;7.28;75.81;101102.00;5115427;28;20293;-75
2021/01/19 07:09:01;;;;;;;15.57;3.63;;;;;;;7.16;76.13;101109.75;5097246;28;20055;-77
2021/01/19 07:11:37;;;;;;;13.02;2.70;;;;;;;7.06;75.50;101101.53;5114780;28;20394;-77
2021/01/19 07:14:14;;;;;;;18.25;3.95;;;;;;;7.14;76.19;101105.63;5106283;27;20040;-76
2021/01/19 07:16:55;;;;;;;13.88;3.20;;;;;;;7.09;75.78;101120.19;5087606;28;20060;-76
2021/01/19 07:19:35;;;;;;;15.25;3.92;;;;;;;7.27;75.60;101118.72;5115368;28;20173;-77
2021/01/19 07:22:07;;;;;;;14.30;3.60;;;;;;;7.20;75.90;101123.69;5099418;28;20063;-78
2021/01/19 07:24:42;;;;;;;17.13;3.42;;;;;;;7.22;76.22;101124.25;5116227;28;20481;-76
2021/01/19 07:27:11;;;;;;;12.18;2.88;;;;;;;7.06;75.77;101114.44;5115125;28;20039;-76
2021/01/19 07:29:39;;;;;;;16.97;3.30;;;;;;;7.05;76.60;101119.09;5097069;28;20044;-76
2021/01/19 07:32:15;;;;;;;10.30;2.78;;;;;;;7.11;77.19;101122.63;5080688;28;20644;-77
2021/01/19 07:35:04;;;;;;;14.95;3.03;;;;;;;7.05;77.07;101124.56;5115459;28;20043;-78
2021/01/19 07:38:01;;;;;;;12.32;3.20;;;;;;;6.98;77.28;101126.78;5008177;28;20064;-78
2021/01/19 07:40:42;;;;;;;12.55;3.45;;;;;;;6.83;77.56;101130.38;5052784;28;20197;-77
2021/01/19 07:44:28;;;;;;;;;;;;;;;;;;;;;
2021/01/19 07:47:57;;;;;;;16.05;3.78;;;;;;;6.99;77.55;101117.47;4973067;28;20054;-79
2021/01/19 07:51:45;;;;;;;12.50;3.42;;;;;;;7.02;78.01;101122.41;4957621;28;20066;-77
2021/01/19 07:55:33;;;;;;;;;;;;;;;7.08;78.04;101120.47;4896457;29;20060;-76
2021/01/19 07:58:24;;;;;;;12.95;3.33;;;;;;;7.25;76.75;101113.53;4863152;29;20046;-75
2021/01/19 08:01:06;;;;;;;19.08;4.20;;;;;;;7.30;76.82;101108.03;4876098;29;20511;-76
2021/01/19 08:03:33;;;;;;;17.90;3.80;;;;;;;7.37;76.24;101108.53;4872991;29;20049;-77
2021/01/19 08:06:10;;;;;;;17.27;4.00;;;;;;;7.25;76.29;101112.72;4878466;29;20068;-79
2021/01/19 08:08:39;;;;;;;16.20;3.70;;;;;;;7.28;76.09;101112.13;4889712;29;20060;-75
2021/01/19 08:11:18;;;;;;;23.13;5.87;;;;;;;7.37;75.92;101115.94;4936989;29;20060;-79
2021/01/19 08:14:02;;;;;;;20.35;4.93;;;;;;;7.18;76.69;101115.75;4992310;28;20050;-79
2021/01/19 08:16:36;;;;;;;20.50;4.75;;;;;;;7.25;76.69;101129.16;4993930;28;20046;-82
2021/01/19 08:19:03;;;;;;;16.67;4.18;;;;;;;7.15;76.99;101118.25;4996711;28;20058;-79
2021/01/19 08:21:34;;;;;;;15.13;3.88;;;;;;;7.30;76.27;101115.41;4991247;28;20073;-78
2021/01/19 08:24:05;;;;;;;21.75;5.40;;;;;;;7.19;76.36;101122.88;5005022;28;20049;-80
2021/01/19 08:26:33;;;;;;;14.82;4.75;;;;;;;7.30;76.70;101109.94;4977025;28;20069;-80
2021/01/19 08:29:01;;;;;;;14.95;3.75;;;;;;;7.10;77.33;101101.81;4992722;28;20062;-78
2021/01/19 08:31:29;;;;;;;17.67;4.45;;;;;;;7.08;77.88;101113.03;5007510;28;20056;-79
2021/01/19 08:34:07;;;;;;;19.05;3.60;;;;;;;7.29;77.99;101102.81;5081682;28;20052;-79
2021/01/19 08:36:35;;;;;;;12.95;4.05;;;;;;;7.15;77.47;101099.06;5115819;28;20059;-80
2021/01/19 08:39:05;;;;;;;15.98;4.55;;;;;;;7.06;78.38;101104.28;5113372;28;20058;-79
2021/01/19 08:41:32;;;;;;;19.30;4.18;;;;;;;7.47;77.60;101103.00;5095881;28;20402;-79
2021/01/19 08:44:07;;;;;;;17.05;4.80;;;;;;;7.42;77.63;101099.44;5109670;28;20048;-79
2021/01/19 08:46:34;;;;;;;17.95;4.40;;;;;;;7.47;78.28;101100.25;5094471;28;20055;-80
2021/01/19 08:49:11;;;;;;;16.00;4.70;;;;;;;7.36;78.28;101098.66;5095021;28;20044;-81
2021/01/19 08:51:46;;;;;;;18.63;4.30;;;;;;;7.22;79.07;101096.84;5113670;28;20047;-77
2021/01/19 08:54:13;;;;;;;15.38;3.90;;;;;;;7.10;79.39;101105.38;5097142;28;20455;-79
2021/01/19 08:56:43;;;;;;;12.95;3.67;;;;;;;7.06;78.37;101109.75;5103924;28;20032;-78
2021/01/19 08:59:19;;;;;;;13.73;4.40;;;;;;;7.16;78.24;101097.94;5083450;28;20051;-77
2021/01/19 09:01:50;;;;;;;14.95;4.97;;;;;;;7.34;77.98;101105.53;5094687;28;20055;-78
2021/01/19 09:04:31;;;;;;;22.23;4.63;;;;;;;7.21;78.39;101104.22;5114360;28;20406;-80
2021/01/19 09:07:08;;;;;;;16.17;5.05;;;;;;;7.13;78.83;101093.03;5077504;28;20043;-79
2021/01/19 09:09:35;;;;;;;16.25;4.07;;;;;;;7.16;79.00;101098.78;5059711;28;20059;-77
2021/01/19 09:12:15;;;;;;;17.02;4.60;;;;;;;7.09;78.55;101100.19;5098620;28;20524;-78
2021/01/19 09:14:50;;;;;;;12.48;4.45;;;;;;;7.25;78.96;101102.56;5098332;28;20427;-80
2021/01/19 09:17:25;;;;;;;13.15;4.40;;;;;;;7.40;77.42;101104.41;5096311;28;20056;-79
2021/01/19 09:20:09;;;;;;;15.63;4.90;;;;;;;7.17;78.38;101089.44;5090226;28;20040;-77
2021/01/19 09:22:39;;;;;;;23.33;5.03;;;;;;;7.11;78.61;101095.25;5086342;28;20137;-81
2021/01/19 09:25:06;;;;;;;22.00;5.95;;;;;;;7.20;77.60;101099.03;5115805;28;20036;-79
2021/01/19 09:27:35;;;;;;;15.50;4.57;;;;;;;7.16;78.04;101115.22;5115783;28;20043;-79
2021/01/19 09:30:10;;;;;;;14.55;4.00;;;;;;;7.30;76.92;101112.69;5115365;28;20052;-79
2021/01/19 09:32:39;;;;;;;18.17;4.28;;;;;;;7.10;77.69;101119.06;5095067;28;20478;-80
2021/01/19 09:35:08;;;;;;;15.40;4.20;;;;;;;7.18;77.79;101113.03;5096956;28;20474;-81
2021/01/19 09:37:35;;;;;;;13.20;4.15;;;;;;;7.05;78.03;101119.09;5095899;28;20066;-80
2021/01/19 09:40:04;;;;;;;12.73;4.53;;;;;;;7.92;78.21;101123.78;5112303;28;20070;-78
2021/01/19 09:42:32;;;;;;;15.48;4.32;;;;;;;7.72;75.74;101124.75;5082757;28;20062;-79
2021/01/19 09:45:00;;;;;;;12.45;4.32;;;;;;;7.45;75.97;101127.13;5112755;28;20387;-76
2021/01/19 09:47:27;;;;;;;15.95;4.63;;;;;;;7.30;77.43;101124.47;5112895;28;20047;-78
2021/01/19 09:49:55;;;;;;;13.63;4.38;;;;;;;7.22;77.56;101126.97;5077444;28;20056;-78
2021/01/19 09:52:30;;;;;;;13.48;4.35;;;;;;;7.20;78.43;101129.16;5112317;28;20532;-79
2021/01/19 09:55:12;;;;;;;11.90;4.00;;;;;;;7.08;78.88;101134.16;5074909;28;20048;-79
2021/01/19 09:57:42;;;;;;;16.63;4.35;;;;;;;7.22;78.07;101132.47;5094354;28;20048;-80
2021/01/19 10:00:11;;;;;;;13.63;5.28;;;;;;;6.98;77.69;101115.00;5093672;28;20039;-78
2021/01/19 10:02:40;;;;;;;13.93;4.47;;;;;;;7.08;78.10;101114.97;5109140;28;20044;-80
2021/01/19 10:05:09;;;;;;;14.15;4.95;;;;;;;6.84;78.76;101120.25;5092828;28;20055;-79
2021/01/19 10:07:37;;;;;;;13.73;5.17;;;;;;;6.99;78.88;101116.66;5113337;28;20070;-79
2021/01/19 10:10:11;;;;;;;15.98;4.88;;;;;;;6.95;79.05;101107.34;5093698;28;20048;-78
2021/01/19 10:12:39;;;;;;;13.40;4.53;;;;;;;6.99;78.44;101108.44;5092837;28;20054;-78
2021/01/19 10:15:08;;;;;;;14.55;4.53;;;;;;;7.31;77.63;101106.09;5111880;28;20039;-78
2021/01/19 10:17:36;;;;;;;17.53;4.73;;;;;;;7.22;77.16;101121.50;5112507;28;20403;-79
2021/01/19 10:20:15;;;;;;;18.80;4.88;;;;;;;7.27;76.94;101121.47;5115742;28;20043;-78
2021/01/19 10:22:44;;;;;;;14.73;4.90;;;;;;;7.11;78.05;101107.03;5116575;28;20039;-80
2021/01/19 10:25:13;;;;;;;21.10;5.47;;;;;;;7.15;78.24;101101.81;5065200;28;20052;-77
2021/01/19 10:27:42;;;;;;;13.90;5.03;;;;;;;7.29;77.45;101087.19;5114544;28;20048;-78
2021/01/19 10:30:13;;;;;;;17.90;5.00;;;;;;;7.26;77.95;101095.16;5098963;28;20058;-79
2021/01/19 10:32:48;;;;;;;17.38;6.13;;;;;;;7.25;77.35;101096.28;5117167;28;20059;-78
2021/01/19 10:35:26;;;;;;;15.57;5.18;;;;;;;7.44;77.38;101087.13;5098466;28;20394;-79
2021/01/19 10:38:05;;;;;;;23.88;5.72;;;;;;;7.42;76.43;101081.09;5079823;28;20055;-78
2021/01/19 10:40:33;;;;;;;24.73;6.25;;;;;;;7.32;77.20;101086.63;5098435;28;20044;-78
2021/01/19 10:43:08;;;;;;;22.40;5.93;;;;;;;7.54;77.26;101087.03;5099153;28;20043;-77
2021/01/19 10:45:40;;;;;;;19.35;5.50;;;;;;;7.57;75.75;101082.91;5078162;28;20047;-80
2021/01/19 10:48:21;;;;;;;19.23;5.80;;;;;;;7.76;74.81;101086.59;5119949;28;20044;-78
2021/01/19 10:50:52;;;;;;;20.48;5.38;;;;;;;7.77;75.93;101080.03;5100122;28;20039;-79
2021/01/19 10:53:28;;;;;;;15.13;5.60;;;;;;;7.93;75.48;101076.88;5082404;28;20468;-81
2021/01/19 10:55:55;;;;;;;24.42;5.57;;;;;;;8.20;74.28;101064.56;5100069;28;20043;-80
2021/01/19 10:58:23;;;;;;;18.35;5.70;;;;;;;8.12;74.24;101066.03;5078043;28;20040;-77
2021/01/19 11:00:49;;;;;;;18.23;5.43;;;;;;;7.95;74.65;101068.34;5112238;28;20051;-82
2021/01/19 11:03:16;;;;;;;18.35;5.22;;;;;;;8.07;74.53;101062.50;5098738;28;20047;-80
2021/01/19 11:05:43;;;;;;;19.77;7.28;;;;;;;8.23;74.36;101048.31;5115070;28;20379;-81
2021/01/19 11:08:13;;;;;;;15.38;5.10;;;;;;;7.96;74.69;101056.28;5113724;28;20046;-78
2021/01/19 11:10:41;;;;;;;18.77;4.95;;;;;;;7.93;75.46;101074.13;5119101;28;20056;-78
2021/01/19 11:13:08;;;;;;;20.15;5.95;;;;;;;8.15;74.93;101054.47;5090130;27;20042;-78
2021/01/19 11:15:36;;;;;;;105.80;46.25;;;;;;;8.24;75.04;101055.50;5099060;28;20051;-80
2021/01/19 11:18:03;;;;;;;26.23;8.43;;;;;;;8.37;74.32;101046.56;5100188;27;20044;-78
2021/01/19 11:20:30;;;;;;;18.67;5.32;;;;;;;8.16;74.07;101044.31;5098829;28;20051;-76
2021/01/19 11:22:57;;;;;;;16.40;4.80;;;;;;;8.05;75.43;101048.25;5115827;28;20046;-79
2021/01/19 11:25:25;;;;;;;16.90;4.97;;;;;;;8.07;75.79;101044.13;5115007;28;20036;-79
2021/01/19 11:27:52;;;;;;;21.10;4.97;;;;;;;8.32;74.05;101032.91;5081122;28;20055;-78
2021/01/19 11:30:19;;;;;;;18.48;4.72;;;;;;;8.22;74.73;101035.72;5113897;28;20047;-78
2021/01/19 11:32:49;;;;;;;15.25;4.72;;;;;;;8.29;74.37;101029.94;5115101;28;20047;-79
2021/01/19 11:35:16;;;;;;;20.00;5.00;;;;;;;8.38;73.82;101023.53;5117577;28;20036;-79
2021/01/19 11:37:44;;;;;;;16.42;5.50;;;;;;;8.44;74.09;101033.31;5117192;28;20046;-80
2021/01/19 11:40:11;;;;;;;17.05;4.72;;;;;;;8.36;73.94;101025.72;5115660;28;20410;-80
2021/01/19 11:42:38;;;;;;;18.10;4.90;;;;;;;8.43;73.66;101022.63;5082175;28;20062;-78
2021/01/19 11:45:09;;;;;;;21.85;5.28;;;;;;;8.36;73.66;101006.53;5112101;28;20062;-80
2021/01/19 11:47:37;;;;;;;14.48;4.55;;;;;;;8.35;74.03;101021.34;5096937;28;20402;-77